Time;durP1;ratioP1;P1;durP2;ratioP2;P2;SDS_P1;SDS_P2;PMS_P1;PMS_P2;Temp;Humidity;BMP_temperature;BMP_pressure;BME280_temperature;BME280_humidity;BME280_pressure;Samples;Min_cycle;Max_cycle;Signal;HPM_P1;HPM_P2
2022/09/16 00:00:05;;;;;;;7.23;2.57;;;;;;;;;;5034509;28;20443;-64
2022/09/16 00:02:32;;;;;;;1.70;1.60;;;;;;;;;;5033843;28;20485;-63
2022/09/16 00:04:59;;;;;;;3.07;1.87;;;;;;;;;;5034903;28;20489;-64
2022/09/16 00:07:28;;;;;;;5.27;2.30;;;;;;;;;;5034954;28;20434;-64
2022/09/16 00:09:55;;;;;;;2.40;1.83;;;;;;;;;;5034518;28;20921;-63
2022/09/16 00:12:22;;;;;;;8.10;1.97;;;;;;;;;;5034611;28;20447;-63
2022/09/16 00:14:49;;;;;;;3.50;1.80;;;;;;;;;;5034049;28;20462;-63
2022/09/16 00:17:16;;;;;;;2.60;1.70;;;;;;;;;;5034300;28;20465;-64
2022/09/16 00:19:44;;;;;;;1.57;1.47;;;;;;;;;;5034329;28;20440;-64
2022/09/16 00:22:11;;;;;;;3.63;1.93;;;;;;;;;;5034121;28;20803;-64
2022/09/16 00:24:40;;;;;;;5.77;1.67;;;;;;;;;;5034102;28;20486;-64
2022/09/16 00:27:07;;;;;;;3.10;1.60;;;;;;;;;;5034545;28;20447;-64
2022/09/16 00:29:35;;;;;;;4.63;1.73;;;;;;;;;;5034759;28;20443;-64
2022/09/16 00:32:03;;;;;;;2.00;1.43;;;;;;;;;;5034294;28;20478;-64
2022/09/16 00:34:30;;;;;;;4.10;1.90;;;;;;;;;;5034009;28;20546;-63
2022/09/16 00:36:57;;;;;;;2.10;1.40;;;;;;;;;;5034190;28;20438;-65
2022/09/16 00:39:24;;;;;;;4.90;1.60;;;;;;;;;;5033974;28;20441;-64
2022/09/16 00:41:53;;;;;;;6.23;1.87;;;;;;;;;;5033602;28;20451;-63
2022/09/16 00:44:39;;;;;;;1.97;1.73;;;;;;;;;;5033666;28;21218;-64
2022/09/16 00:47:07;;;;;;;3.67;2.33;;;;;;;;;;5033942;28;20438;-63
2022/09/16 00:49:34;;;;;;;3.57;1.70;;;;;;;;;;5033858;28;20449;-63
2022/09/16 00:52:03;;;;;;;3.73;1.80;;;;;;;;;;5033757;28;20452;-64
2022/09/16 00:54:30;;;;;;;2.40;1.67;;;;;;;;;;5033366;28;20955;-64
2022/09/16 00:56:59;;;;;;;3.80;2.00;;;;;;;;;;5033693;28;20453;-63
2022/09/16 00:59:27;;;;;;;4.00;1.80;;;;;;;;;;5033283;28;20449;-63
2022/09/16 01:01:56;;;;;;;4.00;2.03;;;;;;;;;;5033787;28;20451;-63
2022/09/16 01:04:25;;;;;;;4.70;2.93;;;;;;;;;;5033419;28;20445;-63
2022/09/16 01:06:53;;;;;;;8.67;2.00;;;;;;;;;;5034218;28;20434;-63
2022/09/16 01:09:22;;;;;;;4.30;2.10;;;;;;;;;;5033423;28;20449;-63
2022/09/16 01:11:50;;;;;;;11.20;2.30;;;;;;;;;;5033209;28;20446;-63
2022/09/16 01:17:10;;;;;;;4.90;2.37;;;;;;;;;;5033302;28;20496;-63
2022/09/16 01:19:57;;;;;;;3.00;1.90;;;;;;;;;;5033081;28;20431;-64
2022/09/16 01:22:31;;;;;;;8.97;2.63;;;;;;;;;;5033247;28;20448;-63
2022/09/16 01:25:01;;;;;;;5.53;2.50;;;;;;;;;;5033394;28;20462;-67
2022/09/16 01:27:43;;;;;;;4.97;2.80;;;;;;;;;;5033466;28;20426;-64
2022/09/16 01:30:18;;;;;;;5.27;2.60;;;;;;;;;;5033201;28;20426;-63
2022/09/16 01:32:52;;;;;;;2.77;2.20;;;;;;;;;;5033342;28;20527;-64
2022/09/16 01:35:23;;;;;;;6.80;3.00;;;;;;;;;;5032971;28;20485;-64
2022/09/16 01:37:54;;;;;;;2.87;2.60;;;;;;;;;;5033670;28;20761;-64
2022/09/16 01:40:24;;;;;;;4.60;2.33;;;;;;;;;;5033251;28;20449;-63
2022/09/16 01:43:00;;;;;;;5.17;2.60;;;;;;;;;;5033118;28;20434;-64
2022/09/16 01:45:30;;;;;;;5.60;2.77;;;;;;;;;;5033309;28;20470;-63
2022/09/16 01:48:05;;;;;;;5.60;3.07;;;;;;;;;;5033965;28;20434;-64
2022/09/16 01:50:34;;;;;;;7.77;2.90;;;;;;;;;;5032792;28;20434;-64
2022/09/16 01:53:06;;;;;;;4.67;2.53;;;;;;;;;;5032839;28;21117;-64
2022/09/16 01:55:35;;;;;;;3.00;2.47;;;;;;;;;;5033459;28;20431;-63
2022/09/16 01:58:07;;;;;;;7.80;2.43;;;;;;;;;;5033165;28;20446;-64
2022/09/16 02:00:34;;;;;;;6.70;2.70;;;;;;;;;;5033333;28;20450;-63
2022/09/16 02:03:05;;;;;;;3.93;2.30;;;;;;;;;;5032706;28;20967;-64
2022/09/16 02:05:35;;;;;;;2.30;2.10;;;;;;;;;;5033054;28;20536;-63
2022/09/16 02:08:04;;;;;;;2.70;2.50;;;;;;;;;;5033114;28;20434;-63
2022/09/16 02:10:34;;;;;;;2.50;2.00;;;;;;;;;;5032583;28;20453;-63
2022/09/16 02:13:11;;;;;;;8.33;2.40;;;;;;;;;;5033229;28;20446;-63
2022/09/16 02:15:40;;;;;;;5.40;2.70;;;;;;;;;;5033501;28;20495;-63
2022/09/16 02:18:11;;;;;;;3.67;2.40;;;;;;;;;;5032891;28;20521;-63
2022/09/16 02:20:41;;;;;;;5.67;2.03;;;;;;;;;;5032510;28;20447;-63
2022/09/16 02:23:12;;;;;;;5.87;3.73;;;;;;;;;;5032881;28;20438;-64
2022/09/16 02:25:40;;;;;;;2.73;2.07;;;;;;;;;;5033600;28;20482;-63
2022/09/16 02:28:11;;;;;;;3.43;2.07;;;;;;;;;;5036414;28;20961;-63
2022/09/16 02:30:40;;;;;;;2.93;1.80;;;;;;;;;;5036085;28;20515;-63
2022/09/16 02:33:10;;;;;;;3.67;2.37;;;;;;;;;;5036358;28;20422;-63
2022/09/16 02:35:39;;;;;;;6.20;2.23;;;;;;;;;;5036175;28;20442;-63
2022/09/16 02:38:09;;;;;;;4.17;2.07;;;;;;;;;;5036245;28;20437;-63
2022/09/16 02:40:42;;;;;;;2.77;2.10;;;;;;;;;;5035848;28;20938;-63
2022/09/16 02:43:09;;;;;;;6.17;2.60;;;;;;;;;;5036182;28;20541;-64
2022/09/16 02:45:41;;;;;;;8.37;2.50;;;;;;;;;;5035891;28;20482;-64
2022/09/16 02:48:13;;;;;;;4.80;2.70;;;;;;;;;;5036764;28;20438;-63
2022/09/16 02:50:42;;;;;;;3.00;2.70;;;;;;;;;;5036025;28;20442;-63
2022/09/16 02:53:12;;;;;;;4.63;2.63;;;;;;;;;;5036264;28;20438;-63
2022/09/16 02:55:47;;;;;;;5.90;4.40;;;;;;;;;;5036145;28;20496;-64
2022/09/16 02:58:14;;;;;;;4.30;3.00;;;;;;;;;;5035562;28;20437;-63
2022/09/16 03:00:44;;;;;;;2.63;2.33;;;;;;;;;;5035834;28;20763;-64
2022/09/16 03:03:13;;;;;;;5.00;3.30;;;;;;;;;;5035930;28;20430;-64
2022/09/16 03:05:59;;;;;;;5.53;3.10;;;;;;;;;;5035242;28;20490;-64
2022/09/16 03:08:26;;;;;;;8.90;3.90;;;;;;;;;;5035795;28;20435;-65
2022/09/16 03:10:54;;;;;;;10.50;4.10;;;;;;;;;;5035209;28;20442;-63
2022/09/16 03:13:23;;;;;;;7.97;3.73;;;;;;;;;;5035525;28;20473;-64
2022/09/16 03:15:57;;;;;;;7.90;3.53;;;;;;;;;;5035528;28;20450;-63
2022/09/16 03:18:36;;;;;;;4.30;3.60;;;;;;;;;;5035825;28;20434;-63
2022/09/16 03:21:09;;;;;;;11.20;4.30;;;;;;;;;;5035499;28;20787;-64
2022/09/16 03:23:44;;;;;;;5.00;4.47;;;;;;;;;;5035432;28;20922;-63
2022/09/16 03:26:15;;;;;;;7.20;3.60;;;;;;;;;;5034880;28;20484;-64
2022/09/16 03:28:45;;;;;;;8.03;4.13;;;;;;;;;;5035073;28;20904;-63
2022/09/16 03:31:18;;;;;;;10.07;4.10;;;;;;;;;;5034862;28;20484;-63
2022/09/16 03:33:48;;;;;;;10.03;4.00;;;;;;;;;;5034835;28;20446;-64
2022/09/16 03:36:19;;;;;;;5.13;4.23;;;;;;;;;;5035163;28;20441;-64
2022/09/16 03:38:47;;;;;;;5.97;4.83;;;;;;;;;;5035680;28;20435;-64
2022/09/16 03:41:15;;;;;;;8.37;4.73;;;;;;;;;;5034979;28;20447;-64
2022/09/16 03:43:52;;;;;;;10.83;4.63;;;;;;;;;;5034985;28;20442;-65
2022/09/16 03:46:19;;;;;;;8.20;4.47;;;;;;;;;;5035001;28;20469;-64
2022/09/16 03:48:48;;;;;;;11.43;4.93;;;;;;;;;;5035079;28;20448;-64
2022/09/16 03:51:15;;;;;;;6.70;4.87;;;;;;;;;;5034758;28;20446;-64
2022/09/16 03:53:43;;;;;;;6.70;4.77;;;;;;;;;;5034946;28;20443;-64
2022/09/16 03:56:10;;;;;;;9.20;5.77;;;;;;;;;;5032545;28;20450;-64
2022/09/16 03:58:37;;;;;;;13.00;4.80;;;;;;;;;;5033814;28;20442;-64
2022/09/16 04:01:04;;;;;;;11.43;4.80;;;;;;;;;;5033974;28;20456;-64
2022/09/16 04:03:32;;;;;;;6.70;4.43;;;;;;;;;;5034514;28;20509;-64
2022/09/16 04:06:00;;;;;;;6.43;4.97;;;;;;;;;;5034307;28;20478;-64
2022/09/16 04:08:27;;;;;;;7.43;4.50;;;;;;;;;;5034400;28;20442;-64
2022/09/16 04:10:55;;;;;;;9.30;5.10;;;;;;;;;;5034184;28;20435;-64
2022/09/16 04:13:22;;;;;;;9.40;5.17;;;;;;;;;;5034324;28;20434;-64
2022/09/16 04:15:50;;;;;;;8.63;4.70;;;;;;;;;;5034172;28;20454;-64
2022/09/16 04:18:18;;;;;;;8.00;5.27;;;;;;;;;;5034402;28;20806;-64
2022/09/16 04:20:45;;;;;;;11.70;5.30;;;;;;;;;;5033611;28;20439;-64
2022/09/16 04:23:14;;;;;;;13.47;5.50;;;;;;;;;;5034090;28;20443;-64
2022/09/16 04:25:41;;;;;;;7.50;4.50;;;;;;;;;;5033314;28;20482;-64
2022/09/16 04:28:08;;;;;;;11.10;4.20;;;;;;;;;;5033745;28;20450;-64
2022/09/16 04:30:37;;;;;;;6.40;4.43;;;;;;;;;;5033666;28;20529;-64
2022/09/16 04:33:04;;;;;;;7.10;4.43;;;;;;;;;;5033463;28;20430;-64
2022/09/16 04:35:31;;;;;;;7.93;4.00;;;;;;;;;;5033392;28;20910;-64
2022/09/16 04:37:58;;;;;;;7.17;4.33;;;;;;;;;;5033566;28;20461;-64
2022/09/16 04:40:27;;;;;;;8.43;4.30;;;;;;;;;;5033443;28;20457;-64
2022/09/16 04:42:54;;;;;;;6.20;4.33;;;;;;;;;;5033730;28;20449;-64
2022/09/16 04:45:21;;;;;;;9.23;3.30;;;;;;;;;;5033553;28;20438;-65
2022/09/16 04:47:49;;;;;;;4.77;3.47;;;;;;;;;;5033223;28;20496;-64
2022/09/16 04:50:16;;;;;;;5.53;3.43;;;;;;;;;;5033625;28;20453;-64
2022/09/16 04:52:43;;;;;;;9.47;4.10;;;;;;;;;;5033155;28;20449;-64
2022/09/16 04:55:10;;;;;;;8.63;3.80;;;;;;;;;;5033264;28;20453;-64
2022/09/16 04:57:40;;;;;;;4.90;3.23;;;;;;;;;;5033467;28;20473;-64
2022/09/16 05:00:08;;;;;;;11.63;4.30;;;;;;;;;;5033496;28;20437;-64
2022/09/16 05:02:36;;;;;;;9.50;3.77;;;;;;;;;;5033588;28;20529;-64
2022/09/16 05:05:03;;;;;;;5.63;4.10;;;;;;;;;;5033164;28;20450;-64
2022/09/16 05:07:30;;;;;;;7.10;3.10;;;;;;;;;;5033401;28;20478;-64
2022/09/16 05:09:57;;;;;;;5.83;2.97;;;;;;;;;;5033581;28;20442;-64
2022/09/16 05:12:24;;;;;;;3.53;3.13;;;;;;;;;;5033478;28;20444;-64
2022/09/16 05:14:53;;;;;;;3.43;2.40;;;;;;;;;;5033381;28;20448;-64
2022/09/16 05:17:20;;;;;;;7.00;2.47;;;;;;;;;;5032994;28;20452;-64
2022/09/16 05:19:47;;;;;;;4.10;2.40;;;;;;;;;;5033088;28;20449;-64
2022/09/16 05:22:14;;;;;;;3.07;2.77;;;;;;;;;;5033020;28;20948;-64
2022/09/16 05:24:43;;;;;;;3.00;2.53;;;;;;;;;;5033569;28;20923;-64
2022/09/16 05:27:10;;;;;;;6.07;2.07;;;;;;;;;;5033462;28;21044;-64
2022/09/16 05:29:37;;;;;;;7.03;2.20;;;;;;;;;;5033383;28;20482;-64
2022/09/16 05:32:06;;;;;;;5.23;2.20;;;;;;;;;;5032888;28;20315;-64
2022/09/16 05:34:35;;;;;;;2.73;1.83;;;;;;;;;;5033003;28;20438;-64
2022/09/16 05:37:02;;;;;;;2.57;1.97;;;;;;;;;;5033237;28;20449;-64
2022/09/16 05:39:30;;;;;;;8.20;2.33;;;;;;;;;;5032957;28;20445;-64
2022/09/16 05:41:58;;;;;;;4.93;2.80;;;;;;;;;;5032842;28;20443;-65
2022/09/16 05:44:25;;;;;;;4.10;2.00;;;;;;;;;;5032824;28;20457;-64
2022/09/16 05:46:52;;;;;;;3.03;2.30;;;;;;;;;;5033216;28;20470;-64
2022/09/16 05:49:22;;;;;;;3.67;1.60;;;;;;;;;;5032815;28;20962;-64
2022/09/16 05:51:50;;;;;;;4.57;1.77;;;;;;;;;;5032741;28;20439;-64
2022/09/16 05:54:18;;;;;;;8.60;1.97;;;;;;;;;;5033138;28;20438;-64
2022/09/16 05:56:45;;;;;;;7.97;2.25;;;;;;;;;;5033137;28;20442;-65
2022/09/16 05:59:13;;;;;;;3.73;2.10;;;;;;;;;;5032695;28;20199;-64
2022/09/16 06:01:40;;;;;;;4.67;1.87;;;;;;;;;;5035735;28;20454;-65
2022/09/16 06:04:08;;;;;;;5.37;1.90;;;;;;;;;;5037151;28;20442;-64
2022/09/16 06:06:37;;;;;;;4.40;2.00;;;;;;;;;;5036521;28;20477;-65
2022/09/16 06:09:05;;;;;;;5.87;2.00;;;;;;;;;;5036199;28;20957;-64
2022/09/16 06:11:33;;;;;;;3.20;1.80;;;;;;;;;;5036663;28;20830;-64
2022/09/16 06:14:01;;;;;;;2.20;1.93;;;;;;;;;;5036806;28;20557;-64
2022/09/16 06:16:31;;;;;;;3.20;2.40;;;;;;;;;;5036318;28;20496;-64
2022/09/16 06:18:58;;;;;;;5.40;1.87;;;;;;;;;;5036289;28;20427;-64
2022/09/16 06:21:25;;;;;;;4.17;2.23;;;;;;;;;;5036271;28;20931;-64
2022/09/16 06:23:54;;;;;;;5.43;1.93;;;;;;;;;;5036079;28;20952;-64
2022/09/16 06:26:23;;;;;;;7.87;2.07;;;;;;;;;;5037020;28;20835;-64
2022/09/16 06:28:50;;;;;;;3.67;2.37;;;;;;;;;;5036372;28;20439;-64
2022/09/16 06:31:19;;;;;;;4.40;2.00;;;;;;;;;;5036198;28;20834;-64
2022/09/16 06:33:46;;;;;;;7.57;2.77;;;;;;;;;;5036295;28;20442;-64
2022/09/16 06:36:15;;;;;;;3.70;2.60;;;;;;;;;;5036466;28;20453;-64
2022/09/16 06:38:42;;;;;;;3.67;2.20;;;;;;;;;;5035881;28;20505;-64
2022/09/16 06:41:11;;;;;;;3.00;2.30;;;;;;;;;;5036202;28;20448;-64
2022/09/16 06:43:39;;;;;;;4.60;2.20;;;;;;;;;;5036086;28;20456;-64
2022/09/16 06:46:09;;;;;;;3.30;1.90;;;;;;;;;;5036163;28;20443;-64
2022/09/16 06:48:36;;;;;;;2.67;2.17;;;;;;;;;;5035910;28;20512;-64
2022/09/16 06:51:04;;;;;;;2.40;2.20;;;;;;;;;;5036075;28;20430;-64
2022/09/16 06:53:32;;;;;;;5.40;1.83;;;;;;;;;;5035912;28;20449;-64
2022/09/16 06:56:01;;;;;;;4.47;2.27;;;;;;;;;;5035981;28;20542;-64
2022/09/16 06:58:32;;;;;;;2.40;2.20;;;;;;;;;;5035569;28;20484;-64
2022/09/16 07:00:59;;;;;;;5.03;2.00;;;;;;;;;;5035786;28;20457;-64
2022/09/16 07:03:27;;;;;;;6.23;2.40;;;;;;;;;;5035445;28;20453;-64
2022/09/16 07:05:57;;;;;;;4.33;1.90;;;;;;;;;;5035463;28;20442;-64
2022/09/16 07:08:24;;;;;;;4.60;2.10;;;;;;;;;;5035487;28;20505;-66
2022/09/16 07:10:56;;;;;;;7.03;1.63;;;;;;;;;;5035186;28;20803;-66
2022/09/16 07:13:23;;;;;;;2.10;1.90;;;;;;;;;;5036038;28;20443;-65
2022/09/16 07:15:52;;;;;;;1.43;1.33;;;;;;;;;;5036010;28;20439;-65
2022/09/16 07:18:19;;;;;;;2.50;1.50;;;;;;;;;;5035167;28;20943;-65
2022/09/16 07:20:47;;;;;;;3.43;2.47;;;;;;;;;;5035511;28;20439;-65
2022/09/16 07:23:14;;;;;;;2.40;1.50;;;;;;;;;;5034965;28;20447;-65
2022/09/16 07:25:41;;;;;;;1.40;1.30;;;;;;;;;;5035617;28;20454;-64
2022/09/16 07:28:08;;;;;;;2.83;1.70;;;;;;;;;;5035411;28;20474;-65
2022/09/16 07:30:36;;;;;;;4.47;2.13;;;;;;;;;;5035190;28;20453;-65
2022/09/16 07:33:04;;;;;;;4.80;1.80;;;;;;;;;;5034924;28;20431;-65
2022/09/16 07:35:32;;;;;;;2.83;1.30;;;;;;;;;;5035490;28;20450;-64
2022/09/16 07:38:01;;;;;;;3.67;1.60;;;;;;;;;;5035051;28;20450;-65
2022/09/16 07:40:28;;;;;;;1.90;1.33;;;;;;;;;;5035109;28;20854;-65
2022/09/16 07:42:55;;;;;;;1.70;1.40;;;;;;;;;;5034623;28;20944;-65
2022/09/16 07:45:22;;;;;;;1.80;1.30;;;;;;;;;;5034696;28;20451;-65
2022/09/16 07:47:50;;;;;;;1.70;1.20;;;;;;;;;;5034843;28;20819;-64
2022/09/16 07:50:19;;;;;;;2.50;1.33;;;;;;;;;;5034523;28;20454;-65
2022/09/16 07:52:46;;;;;;;2.67;1.17;;;;;;;;;;5034839;28;20452;-64
2022/09/16 07:55:14;;;;;;;1.40;1.30;;;;;;;;;;5034714;28;20438;-64
2022/09/16 07:57:42;;;;;;;2.10;1.30;;;;;;;;;;5035072;28;20545;-64
2022/09/16 08:00:09;;;;;;;5.10;1.70;;;;;;;;;;5034198;28;20537;-64
2022/09/16 08:02:37;;;;;;;4.30;1.43;;;;;;;;;;5034870;28;20473;-65
2022/09/16 08:05:04;;;;;;;6.43;1.50;;;;;;;;;;5034166;28;20935;-64
2022/09/16 08:07:33;;;;;;;2.87;1.37;;;;;;;;;;5034835;28;20823;-64
2022/09/16 08:10:00;;;;;;;2.03;1.10;;;;;;;;;;5034158;28;20472;-65
2022/09/16 08:12:31;;;;;;;2.77;1.33;;;;;;;;;;5034121;28;20447;-64
2022/09/16 08:14:58;;;;;;;4.40;1.73;;;;;;;;;;5033943;28;20439;-65
2022/09/16 08:17:26;;;;;;;3.90;1.70;;;;;;;;;;5034763;28;20873;-65
2022/09/16 08:19:54;;;;;;;3.07;1.70;;;;;;;;;;5034179;28;20531;-64
2022/09/16 08:22:22;;;;;;;2.67;1.63;;;;;;;;;;5034091;28;20458;-64
2022/09/16 08:24:51;;;;;;;2.93;1.77;;;;;;;;;;5033297;28;20949;-64
2022/09/16 08:27:18;;;;;;;3.10;1.60;;;;;;;;;;5033738;28;20565;-65
2022/09/16 08:29:45;;;;;;;6.13;1.60;;;;;;;;;;5033780;28;20444;-65
2022/09/16 08:32:12;;;;;;;3.47;1.57;;;;;;;;;;5034090;28;20833;-64
2022/09/16 08:34:40;;;;;;;3.37;1.67;;;;;;;;;;5033945;28;20796;-64
2022/09/16 08:37:07;;;;;;;5.20;1.43;;;;;;;;;;5034130;28;20862;-65
2022/09/16 08:39:35;;;;;;;10.80;2.17;;;;;;;;;;5034206;28;20446;-65
2022/09/16 08:42:20;;;;;;;10.20;1.70;;;;;;;;;;5033956;28;20526;-65
2022/09/16 08:44:52;;;;;;;4.60;2.13;;;;;;;;;;5033430;28;20927;-65
2022/09/16 08:47:24;;;;;;;5.57;1.70;;;;;;;;;;5034194;28;20862;-65
2022/09/16 08:49:53;;;;;;;4.20;1.50;;;;;;;;;;5033957;28;20840;-65
2022/09/16 08:52:26;;;;;;;5.23;1.60;;;;;;;;;;5033642;28;20443;-65
2022/09/16 08:54:55;;;;;;;3.10;1.60;;;;;;;;;;5034036;28;20519;-65
2022/09/16 08:57:23;;;;;;;6.40;1.60;;;;;;;;;;5033720;28;20448;-65
2022/09/16 08:59:55;;;;;;;4.20;1.63;;;;;;;;;;5033587;28;20460;-65
2022/09/16 09:02:27;;;;;;;3.90;1.30;;;;;;;;;;5033260;28;20568;-65
2022/09/16 09:04:54;;;;;;;2.83;1.80;;;;;;;;;;5033309;28;20431;-65
2022/09/16 09:07:25;;;;;;;2.20;1.33;;;;;;;;;;5033204;28;20482;-66
2022/09/16 09:09:59;;;;;;;5.93;1.87;;;;;;;;;;5033272;28;20427;-65
2022/09/16 09:12:33;;;;;;;4.33;1.67;;;;;;;;;;5033904;28;20428;-64
2022/09/16 09:15:06;;;;;;;7.63;1.57;;;;;;;;;;5033615;28;20431;-64
2022/09/16 09:17:39;;;;;;;5.37;1.80;;;;;;;;;;5033738;28;20464;-65
2022/09/16 09:20:12;;;;;;;7.23;2.37;;;;;;;;;;5033739;28;20455;-65
2022/09/16 09:22:49;;;;;;;7.23;1.73;;;;;;;;;;5032919;28;20432;-64
2022/09/16 09:25:21;;;;;;;6.83;1.93;;;;;;;;;;5033115;28;20905;-65
2022/09/16 09:27:55;;;;;;;5.93;1.80;;;;;;;;;;5033367;28;20571;-65
2022/09/16 09:30:24;;;;;;;8.23;1.80;;;;;;;;;;5033140;28;20465;-64
2022/09/16 09:33:01;;;;;;;7.20;2.00;;;;;;;;;;5033621;28;20480;-64
2022/09/16 09:35:33;;;;;;;7.90;1.90;;;;;;;;;;5035910;28;20464;-65
2022/09/16 09:38:12;;;;;;;12.17;2.00;;;;;;;;;;5037101;28;20496;-64
2022/09/16 09:40:43;;;;;;;5.20;1.80;;;;;;;;;;5037357;28;20432;-65
2022/09/16 09:43:13;;;;;;;5.40;1.83;;;;;;;;;;5037554;28;20447;-64
2022/09/16 09:45:44;;;;;;;7.17;2.10;;;;;;;;;;5037316;28;20426;-65
2022/09/16 09:48:17;;;;;;;4.20;1.67;;;;;;;;;;5036887;28;20484;-65
2022/09/16 09:50:45;;;;;;;4.93;2.87;;;;;;;;;;5037189;28;20452;-64
2022/09/16 09:53:14;;;;;;;2.17;1.10;;;;;;;;;;5037082;28;20897;-64
2022/09/16 09:55:42;;;;;;;7.43;2.40;;;;;;;;;;5036688;28;20443;-64
2022/09/16 09:58:18;;;;;;;4.90;1.83;;;;;;;;;;5037612;28;20770;-64
2022/09/16 10:00:46;;;;;;;5.50;1.80;;;;;;;;;;5037334;28;20452;-64
2022/09/16 10:03:15;;;;;;;8.73;1.90;;;;;;;;;;5036615;28;20448;-64
2022/09/16 10:05:42;;;;;;;3.67;1.53;;;;;;;;;;5036468;28;20972;-65
2022/09/16 10:08:13;;;;;;;4.10;1.50;;;;;;;;;;5036759;28;20491;-65
2022/09/16 10:10:47;;;;;;;4.40;1.70;;;;;;;;;;5036472;28;20916;-64
2022/09/16 10:13:15;;;;;;;6.03;2.13;;;;;;;;;;5037101;28;20451;-64
2022/09/16 10:15:43;;;;;;;4.80;1.37;;;;;;;;;;5036603;28;20456;-64
2022/09/16 10:18:14;;;;;;;3.77;2.03;;;;;;;;;;5036663;28;20553;-64
2022/09/16 10:20:43;;;;;;;6.37;1.67;;;;;;;;;;5036634;28;20436;-64
2022/09/16 10:23:12;;;;;;;4.27;1.23;;;;;;;;;;5036476;28;20526;-65
2022/09/16 10:25:39;;;;;;;5.47;1.70;;;;;;;;;;5036458;28;20464;-65
2022/09/16 10:28:17;;;;;;;9.47;1.67;;;;;;;;;;5036095;28;20821;-64
2022/09/16 10:30:47;;;;;;;9.33;2.07;;;;;;;;;;5036196;28;20455;-65
2022/09/16 10:33:18;;;;;;;10.40;1.83;;;;;;;;;;5036093;28;20437;-64
2022/09/16 10:35:54;;;;;;;3.90;2.27;;;;;;;;;;5036334;28;20915;-65
2022/09/16 10:38:23;;;;;;;4.60;1.77;;;;;;;;;;5035919;28;20527;-64
2022/09/16 10:40:53;;;;;;;7.80;1.77;;;;;;;;;;5036282;28;20447;-65
2022/09/16 10:43:22;;;;;;;6.53;1.43;;;;;;;;;;5036212;28;20818;-64
2022/09/16 10:45:50;;;;;;;5.80;2.07;;;;;;;;;;5035636;28;20447;-65
2022/09/16 10:48:19;;;;;;;5.77;1.43;;;;;;;;;;5036259;28;20473;-65
2022/09/16 10:50:53;;;;;;;5.57;1.40;;;;;;;;;;5035613;28;20457;-65
2022/09/16 10:53:22;;;;;;;2.93;1.30;;;;;;;;;;5035984;28;20455;-64
2022/09/16 10:55:57;;;;;;;7.23;1.90;;;;;;;;;;5035883;28;20491;-65
2022/09/16 10:58:24;;;;;;;9.43;1.70;;;;;;;;;;5035518;28;20491;-65
2022/09/16 11:00:59;;;;;;;5.70;1.40;;;;;;;;;;5035631;28;20501;-65
2022/09/16 11:03:52;;;;;;;4.63;1.50;;;;;;;;;;5035819;28;20429;-65
2022/09/16 11:06:25;;;;;;;2.90;1.23;;;;;;;;;;5035621;28;20436;-65
2022/09/16 11:08:58;;;;;;;3.20;1.40;;;;;;;;;;5035532;28;20846;-65
2022/09/16 11:11:33;;;;;;;3.37;1.20;;;;;;;;;;5036062;28;20447;-65
2022/09/16 11:14:03;;;;;;;3.83;1.43;;;;;;;;;;5035389;28;20435;-65
2022/09/16 11:16:37;;;;;;;1.10;1.00;;;;;;;;;;5036155;28;20471;-65
2022/09/16 11:19:08;;;;;;;4.60;1.37;;;;;;;;;;5035720;28;20447;-64
2022/09/16 11:21:41;;;;;;;4.63;1.30;;;;;;;;;;5035633;28;20434;-65
2022/09/16 11:24:21;;;;;;;5.57;1.53;;;;;;;;;;5036021;28;20896;-65
2022/09/16 11:26:52;;;;;;;4.73;1.83;;;;;;;;;;5035368;28;20428;-65
2022/09/16 11:29:33;;;;;;;3.47;1.30;;;;;;;;;;5035734;28;20476;-65
2022/09/16 11:32:05;;;;;;;4.20;1.27;;;;;;;;;;5034666;28;20468;-65
2022/09/16 11:34:41;;;;;;;1.93;1.23;;;;;;;;;;5035391;28;20435;-64
2022/09/16 11:37:14;;;;;;;2.60;1.23;;;;;;;;;;5035431;28;20438;-64
2022/09/16 11:39:47;;;;;;;5.13;1.60;;;;;;;;;;5034957;28;20439;-65
2022/09/16 11:42:18;;;;;;;4.13;1.50;;;;;;;;;;5034819;28;20438;-65
2022/09/16 11:44:49;;;;;;;4.37;1.80;;;;;;;;;;5035778;28;20426;-64
2022/09/16 11:47:25;;;;;;;3.00;1.40;;;;;;;;;;5035289;28;20890;-64
2022/09/16 11:50:04;;;;;;;4.93;1.57;;;;;;;;;;5034997;28;20472;-64
2022/09/16 11:52:38;;;;;;;4.23;1.30;;;;;;;;;;5034825;28;20439;-65
2022/09/16 11:55:14;;;;;;;3.23;1.63;;;;;;;;;;5034554;28;20432;-64
2022/09/16 11:57:43;;;;;;;4.63;2.73;;;;;;;;;;5033838;28;20441;-64
2022/09/16 12:00:13;;;;;;;5.60;1.80;;;;;;;;;;5034971;28;20499;-65
2022/09/16 12:02:41;;;;;;;4.00;1.30;;;;;;;;;;5034258;28;20447;-65
2022/09/16 12:05:14;;;;;;;2.60;1.20;;;;;;;;;;5034371;28;20947;-64
2022/09/16 12:07:43;;;;;;;5.20;1.60;;;;;;;;;;5034686;28;20432;-65
2022/09/16 12:10:15;;;;;;;3.73;1.47;;;;;;;;;;5034425;28;20480;-64
2022/09/16 12:12:46;;;;;;;6.87;1.50;;;;;;;;;;5034380;28;20910;-65
2022/09/16 12:15:18;;;;;;;5.13;2.00;;;;;;;;;;5034450;28;20429;-64
2022/09/16 12:17:51;;;;;;;2.37;1.30;;;;;;;;;;5034063;28;20490;-65
2022/09/16 12:20:22;;;;;;;5.00;1.60;;;;;;;;;;5034355;28;20455;-64
2022/09/16 12:22:51;;;;;;;4.40;1.73;;;;;;;;;;5034506;28;20444;-65
2022/09/16 12:25:21;;;;;;;7.17;1.90;;;;;;;;;;5034002;28;20436;-65
2022/09/16 12:27:51;;;;;;;3.20;1.40;;;;;;;;;;5034095;28;20927;-65
2022/09/16 12:30:19;;;;;;;4.00;1.43;;;;;;;;;;5033881;28;20528;-64
2022/09/16 12:32:57;;;;;;;1.83;1.27;;;;;;;;;;5034306;28;20480;-65
2022/09/16 12:35:29;;;;;;;3.70;1.57;;;;;;;;;;5034799;28;20474;-64
2022/09/16 12:37:56;;;;;;;3.60;1.73;;;;;;;;;;5033622;28;20439;-65
2022/09/16 12:40:26;;;;;;;4.33;1.90;;;;;;;;;;5033915;28;20455;-64
2022/09/16 12:43:11;;;;;;;2.23;1.40;;;;;;;;;;5034328;28;20437;-65
2022/09/16 12:45:56;;;;;;;2.93;1.37;;;;;;;;;;5034499;28;20422;-64
2022/09/16 12:48:38;;;;;;;8.83;1.50;;;;;;;;;;5003529;28;20541;-64
2022/09/16 12:51:15;;;;;;;4.67;1.40;;;;;;;;;;5031741;28;20943;-65
2022/09/16 12:53:59;;;;;;;12.83;2.07;;;;;;;;;;5033767;28;20434;-64
2022/09/16 12:56:31;;;;;;;4.37;1.60;;;;;;;;;;5034097;28;20441;-64
2022/09/16 12:59:06;;;;;;;2.43;1.30;;;;;;;;;;5033413;28;20438;-64
2022/09/16 13:01:36;;;;;;;4.03;1.77;;;;;;;;;;5033421;28;20846;-64
2022/09/16 13:04:05;;;;;;;3.90;1.50;;;;;;;;;;5033283;28;20458;-64
2022/09/16 13:06:35;;;;;;;5.27;1.87;;;;;;;;;;5033606;28;20496;-64
2022/09/16 13:09:14;;;;;;;3.90;1.50;;;;;;;;;;5033184;28;20487;-64
2022/09/16 13:11:42;;;;;;;3.60;1.10;;;;;;;;;;5033995;28;20429;-65
2022/09/16 13:14:19;;;;;;;1.80;1.13;;;;;;;;;;5033249;28;20452;-69
2022/09/16 13:16:53;;;;;;;2.13;1.20;;;;;;;;;;5033679;28;20996;-65
2022/09/16 13:19:30;;;;;;;4.33;1.30;;;;;;;;;;5031080;28;20448;-65
2022/09/16 13:22:01;;;;;;;5.50;1.73;;;;;;;;;;5032506;28;20441;-65
2022/09/16 13:24:31;;;;;;;3.33;1.70;;;;;;;;;;5032995;28;20436;-65
2022/09/16 13:26:59;;;;;;;7.00;1.90;;;;;;;;;;5032550;28;20922;-65
2022/09/16 13:29:42;;;;;;;5.33;1.47;;;;;;;;;;5032760;28;20485;-65
2022/09/16 13:32:24;;;;;;;2.97;1.67;;;;;;;;;;5032862;28;20478;-65
2022/09/16 13:35:00;;;;;;;5.20;2.23;;;;;;;;;;5032962;28;20441;-65
2022/09/16 13:37:29;;;;;;;10.77;2.03;;;;;;;;;;5032705;28;20433;-65
2022/09/16 13:39:56;;;;;;;6.37;2.47;;;;;;;;;;5032939;28;20498;-65
2022/09/16 13:42:24;;;;;;;4.77;2.03;;;;;;;;;;5032715;28;20458;-65
2022/09/16 13:44:52;;;;;;;4.93;2.13;;;;;;;;;;5033184;28;20438;-65
2022/09/16 13:47:33;;;;;;;2.40;1.50;;;;;;;;;;5033371;28;20450;-65
2022/09/16 13:50:02;;;;;;;11.07;2.00;;;;;;;;;;5032278;28;20476;-65
2022/09/16 13:52:31;;;;;;;10.17;3.00;;;;;;;;;;5032991;28;20445;-65
2022/09/16 13:55:01;;;;;;;7.03;2.13;;;;;;;;;;5032443;28;20445;-65
2022/09/16 13:57:36;;;;;;;4.43;2.17;;;;;;;;;;5032951;28;20450;-65
2022/09/16 14:00:08;;;;;;;4.20;1.80;;;;;;;;;;5032905;28;20440;-65
2022/09/16 14:02:49;;;;;;;6.77;2.30;;;;;;;;;;5032963;28;20483;-65
2022/09/16 14:05:27;;;;;;;5.60;1.67;;;;;;;;;;5032809;28;20435;-65
2022/09/16 14:07:57;;;;;;;13.00;2.03;;;;;;;;;;5032979;28;20431;-65
2022/09/16 14:10:29;;;;;;;5.00;1.93;;;;;;;;;;5032635;28;20840;-65
2022/09/16 14:13:00;;;;;;;5.17;1.77;;;;;;;;;;5032474;28;20438;-65
2022/09/16 14:15:28;;;;;;;5.33;1.93;;;;;;;;;;5032731;28;20439;-65
2022/09/16 14:17:58;;;;;;;5.03;1.53;;;;;;;;;;5032727;28;20444;-65
2022/09/16 14:20:26;;;;;;;5.10;1.67;;;;;;;;;;5032616;28;20458;-65
2022/09/16 14:23:02;;;;;;;5.73;1.63;;;;;;;;;;5035795;28;20444;-65
2022/09/16 14:25:30;;;;;;;7.50;1.93;;;;;;;;;;5036453;28;20793;-65
2022/09/16 14:28:11;;;;;;;9.53;1.77;;;;;;;;;;5035977;28;20447;-65
2022/09/16 14:30:45;;;;;;;7.53;1.70;;;;;;;;;;5035514;28;20520;-65
2022/09/16 14:33:13;;;;;;;4.13;1.57;;;;;;;;;;5036345;28;20431;-66
2022/09/16 14:35:40;;;;;;;3.20;1.70;;;;;;;;;;5035827;28;20437;-65
2022/09/16 14:38:09;;;;;;;4.20;1.90;;;;;;;;;;5036305;28;20535;-65
2022/09/16 14:40:40;;;;;;;5.13;2.00;;;;;;;;;;5036176;28;20448;-65
2022/09/16 14:43:08;;;;;;;9.60;1.90;;;;;;;;;;5035832;28;20433;-65
2022/09/16 14:45:37;;;;;;;4.53;1.90;;;;;;;;;;5036097;28;20445;-65
2022/09/16 14:48:07;;;;;;;4.63;2.13;;;;;;;;;;5035788;28;20442;-66
2022/09/16 14:50:37;;;;;;;3.30;2.10;;;;;;;;;;5035334;28;20469;-65
2022/09/16 14:53:05;;;;;;;6.60;1.80;;;;;;;;;;5035958;28;20438;-65
2022/09/16 14:55:36;;;;;;;5.73;1.60;;;;;;;;;;5035626;28;21008;-65
2022/09/16 14:58:04;;;;;;;4.03;1.80;;;;;;;;;;5036130;28;20438;-65
2022/09/16 15:00:32;;;;;;;6.07;1.70;;;;;;;;;;5035703;28;20443;-65
2022/09/16 15:03:01;;;;;;;3.90;1.50;;;;;;;;;;5035522;28;20442;-66